Matoaka, West Virginia
Current Conditions -  °F | °C
As of 8:05 AM on Thursday 27 Nov 2014 (Local Time) from KBLF Reporting Station
Overcast Overcast  
Wind Chill: 27°   Ceiling: 500
Heat Index: 33°   Visibility: 10mi
Dew Point: 29°   Wind: 7mph
Humidity: 85%   Direction: 300°WNW
Pressure: 29.99"   Gusts: NA
Location:  37.42°N, 81.24°W
Report Text: KBLF 271305Z AUTO 30006KT 10SM BKN005 BKN008 OVC030 01/M02 A2999 RMK AO2 CIG 003V007 T00061017 $
Loading
Personal Weather Stations






























Interactive Weather Map New forecast layout! Learn more

10-Day Weather Forecast

Advertisements
Track Severe Weather on mobile